Weather observations for the past three days for
Avalon Catalina Airport
Imperial (Metric)
Date Time (pdt) Wind (mph) Vis. (mi.) Weather Sky Cond. Temperature (ºF) Relative Humidity Wind Chill (°F) Heat Index (°F) Pressure Precipitation (in)
Air Dwpt 6 hour altimeter (in) sea level (mb) 1 hr 3 hr 6 hr
Max. Min.
03 13:51 W 7 10.00 Overcast OVC024 57 46 67% 29.97 1014.3
03 12:51 N 7 10.00 Overcast BKN024 OVC028 57 46 67% 29.97 1014.4
03 11:51 N 8 10.00 Overcast OVC028 57 45 64% 29.98 1014.6
03 10:51 NW 8 10.00 Overcast OVC027 57 45 57 51.1 64% 29.98 1014.8
03 09:51 W 6 10.00 Overcast OVC023 55.9 44.1 65% 29.98 1014.5
03 08:51 W 6 10.00 Partly Cloudy FEW014 SCT020 55 46.9 74% 29.97 1014.3
03 07:51 W 6 10.00 Fair CLR 54 48 80% 29.96 1013.9
03 06:51 Calm 10.00 Fair CLR 51.1 48 89% 29.94 1013.3
03 05:51 W 5 10.00 Partly Cloudy SCT015 51.1 48 89% 29.93 1013.0
03 04:51 W 5 10.00 Overcast OVC013 53.1 48.9 53.1 52 86% 29.92 1012.2
03 03:51 W 6 10.00 Overcast BKN003 OVC009 52 51.1 97% 29.92 1012.7
03 02:51 W 8 10.00 Mostly Cloudy BKN011 52 48 86% 29.93 1012.8
03 01:51 W 12 10.00 Overcast OVC007 52 50 93% 29.93 1012.9
03 00:51 W 8 10.00 Overcast OVC003 52 50 93% 29.94 1013.2
02 23:51 W 12 10.00 Overcast OVC002 53.1 51.1 93% 29.94 1012.9
02 22:51 SW 15 6.00 Fog/Mist OVC002 53.1 51.1 59 53.1 93% 29.94 1013.1
02 21:51 SW 13 2.50 Fog/Mist OVC002 53.1 52 96% 29.93 1013.0
02 20:51 SW 12 0.75 Fog/Mist VV002 53.1 52 96% 29.91 1012.5
02 19:51 SW 10 1.00 Fog/Mist VV001 53.1 52 96% 29.89 1011.8
02 18:51 SW 5 10.00 Fair CLR 57 48 72% 29.88 1011.3
02 17:51 SW 13 10.00 Fair CLR 57 52 83% 29.88 1011.3
02 16:51 SW 8 10.00 Fair CLR 60.1 51.1 63 57 72% 29.88 1011.1
02 15:51 SW 15 10.00 Fair CLR 57.9 52 81% 29.89 1011.6
02 14:51 SW 14 10.00 Fair CLR 59 51.1 75% 29.93 1012.7
02 13:51 SW 14 10.00 Fair CLR 59 52 78% 29.95 1013.5
02 12:51 W 10 10.00 Fair CLR 59 52 78% 29.96 1013.9
02 11:51 NW 7 10.00 Fair CLR 62.1 53.1 73% 29.98 1014.1
02 10:51 Vrbl 5 10.00 Mostly Cloudy BKN007 57 54 57 53.1 90% 29.99 1014.7
02 09:51 Calm 2.50 Fog/Mist OVC002 54 54 100% 29.99 1015.0
02 08:51 Vrbl 3 0.15 Fog VV001 53.1 53.1 100% 29.99 1015.1
02 07:51 SW 5 0.15 Fog VV002 53.1 53.1 100% 29.98 1014.9
02 06:51 SW 7 0.15 Fog VV001 53.1 53.1 100% 29.98 1014.5
02 05:51 SW 5 0.15 Fog VV001 53.1 53.1 100% 29.95 1013.5
02 04:51 SW 7 0.15 Fog VV002 53.1 53.1 54 53.1 100% 29.95 1013.2
02 03:51 SW 3 0.15 Fog VV001 53.1 53.1 100% 29.94 1013.0
02 02:51 Vrbl 3 0.15 Fog VV002 53.1 53.1 100% 29.93 1012.7
02 01:51 Vrbl 3 0.15 Fog VV001 53.1 53.1 100% 29.95 1013.1
02 00:51 S 3 0.25 Fog VV002 53.1 53.1 100% 29.96 1013.7
01 23:51 S 3 0.25 Fog VV002 53.1 53.1 100% 29.97 1013.8
01 22:51 SE 3 0.25 Fog VV002 54 54 61 53.1 100% 29.96 1013.6
01 21:51 SE 3 1.00 Fog/Mist VV004 54 54 100% 29.96 1014.1
01 20:51 SW 5 0.25 Fog VV001 54 54 100% 29.95 1013.6
01 19:51 SW 6 0.25 Fog VV002 55 54 96% 29.93 1013.0
01 18:51 W 14 0.50 Fog VV002 55.9 55 97% 29.92 1012.5
01 17:51 SW 10 6.00 Fog/Mist BKN002 57.9 55 90% 29.92 1012.6
01 16:51 W 13 10.00 Fair CLR 61 54 64.9 60.1 78% 29.92 1012.2
01 15:51 W 10 10.00 Fair CLR 62.1 54 75% 29.93 1012.7
01 14:51 W 9 10.00 Fair CLR 63 54 73% 29.95 1013.3
01 13:51 W 6 10.00 Fair CLR 64 54 70% 29.97 1013.6
01 12:51 W 7 10.00 Fair CLR 62.1 54 75% 29.98 1014.1
01 11:51 NE 7 10.00 Fair CLR 63 54 73% 29.98 1014.3
01 10:51 Vrbl 5 10.00 Partly Cloudy SCT007 62.1 54 62.1 53.1 75% 30 1014.8
01 09:51 N 6 10.00 Overcast OVC005 55.9 53.1 90% 29.99 1015.1
01 08:51 Calm 10.00 Overcast OVC003 54 53.1 97% 29.99 1015.1
01 07:51 SE 5 5.00 Fog/Mist OVC002 53.1 53.1 100% 29.97 1014.8
01 06:51 Calm 1.00 Fog/Mist OVC002 54 53.1 97% 29.96 1013.9
01 05:51 NE 6 3.00 Fog/Mist OVC002 53.1 53.1 100% 29.94 1013.1
01 04:51 Calm 2.50 Fog/Mist OVC002 54 53.1 55 53.1 97% 29.93 1012.8
01 03:51 Calm 0.50 Fog VV002 54 54 100% 29.93 1012.9
01 02:51 N 6 0.50 Fog VV001 54 54 100% 29.93 1012.6
01 01:51 NE 7 0.25 Fog VV002 55 55 100% 29.93 1012.7
01 00:51 E 5 1.25 Fog/Mist OVC002 54 54 100% 29.95 1013.1
30 23:51 Calm 0.25 Fog VV002 53.1 53.1 100% 29.95 1013.2
30 22:51 SE 6 10.00 Fair CLR 55 52 59 53.1 90% 29.94 1012.8
30 21:51 SW 3 10.00 Fair CLR 53.1 52 96% 29.94 1013.2
30 20:51 S 3 10.00 Fair CLR 54 51.1 90% 29.92 1012.7
30 19:51 Calm 7.00 Fair CLR 53.1 52 96% 29.9 1012.2
30 18:51 SW 6 10.00 Fair CLR 55.9 52 87% 29.89 1011.7
30 17:51 W 7 10.00 Fair CLR 57.9 51.1 78% 29.89 1011.6
30 16:51 SW 9 9.00 A Few Clouds FEW003 59 53.1 63 57.9 81% 29.89 1011.4
30 15:51 W 13 9.00 Fair CLR 57.9 53.1 84% 29.89 1011.7
30 14:51 SW 14 10.00 Fair CLR 59 53.1 81% 29.91 1012.2
Date Time (pdt) Wind (mph) Vis. (mi.) Weather Sky Cond. Air Dwpt Max. Min. Relative Humidity Wind Chill (°F) Heat Index (°F) altimeter (in) sea level (mb) 1 hr 3 hr 6 hr
6 hour
Temperature (ºF) Pressure Precipitation (in)